createdAt,value
2023-04-05T00:00:58.588Z,0.80
2023-04-05T00:03:30.560Z,0.80
2023-04-05T00:06:00.817Z,0.70
2023-04-05T00:08:34.106Z,0.88
2023-04-05T00:11:04.401Z,1.15
2023-04-05T00:13:34.606Z,1.25
2023-04-05T00:16:04.843Z,0.70
2023-04-05T00:18:35.878Z,1.15
2023-04-05T00:21:06.229Z,0.77
2023-04-05T00:23:40.105Z,0.85
2023-04-05T00:26:11.264Z,0.80
2023-04-05T00:28:41.655Z,0.75
2023-04-05T00:31:12.009Z,0.80
2023-04-05T00:33:42.869Z,0.77
2023-04-05T00:36:21.044Z,0.73
2023-04-05T00:38:54.582Z,0.68
2023-04-05T00:41:24.852Z,0.80
2023-04-05T00:43:55.133Z,0.70
2023-04-05T00:46:25.752Z,0.60
2023-04-05T00:48:56.319Z,0.52
2023-04-05T00:51:26.918Z,0.73
2023-04-05T00:53:57.813Z,0.68
2023-04-05T00:56:28.288Z,0.60
2023-04-05T00:58:58.652Z,0.70
2023-04-05T01:01:30.079Z,0.70
2023-04-05T01:04:09.092Z,0.90
2023-04-05T01:07:13.971Z,0.88
2023-04-05T01:09:56.596Z,0.88
2023-04-05T01:12:30.084Z,0.77
2023-04-05T01:15:00.384Z,0.80
2023-04-05T01:17:38.437Z,0.70
2023-04-05T01:20:14.883Z,1.15
2023-04-05T01:22:59.936Z,1.40
2023-04-05T01:26:05.249Z,1.55
2023-04-05T01:28:50.542Z,1.42
2023-04-05T01:31:55.460Z,1.70
2023-04-05T01:34:48.790Z,0.98
2023-04-05T01:37:22.427Z,0.90
2023-04-05T01:39:53.158Z,0.90
2023-04-05T01:42:29.645Z,1.13
2023-04-05T01:45:00.705Z,0.82
2023-04-05T01:47:31.092Z,1.00
2023-04-05T01:50:01.471Z,1.15
2023-04-05T01:52:31.702Z,1.05
2023-04-05T01:55:01.970Z,0.85
2023-04-05T01:57:32.539Z,1.13
2023-04-05T02:00:03.494Z,0.98
2023-04-05T02:02:33.805Z,1.08
2023-04-05T02:05:05.405Z,1.13
2023-04-05T02:07:35.655Z,1.33
2023-04-05T02:10:06.351Z,1.35
2023-04-05T02:12:36.661Z,0.90
2023-04-05T02:15:07.215Z,1.00
2023-04-05T02:17:40.781Z,0.77
2023-04-05T02:20:14.202Z,1.00
2023-04-05T02:22:46.868Z,1.00
2023-04-05T02:25:17.204Z,1.20
2023-04-05T02:27:48.309Z,1.23
2023-04-05T02:30:18.843Z,1.00
2023-04-05T02:32:49.489Z,1.10
2023-04-05T02:35:19.975Z,1.00
2023-04-05T02:37:50.296Z,0.98
2023-04-05T02:40:20.516Z,0.98
2023-04-05T02:42:50.727Z,1.00
2023-04-05T02:45:21.580Z,0.68
2023-04-05T02:47:52.054Z,0.73
2023-04-05T02:50:22.733Z,0.70
2023-04-05T02:52:53.371Z,1.02
2023-04-05T02:55:23.821Z,1.00
2023-04-05T02:57:54.305Z,1.30
2023-04-05T03:00:25.170Z,1.17
2023-04-05T03:02:55.450Z,0.95
2023-04-05T03:05:25.791Z,1.20
2023-04-05T03:07:56.374Z,0.88
2023-04-05T03:10:26.584Z,0.98
2023-04-05T03:12:57.135Z,0.98
2023-04-05T03:15:27.359Z,1.00
2023-04-05T03:17:59.238Z,1.13
2023-04-05T03:20:29.481Z,0.90
2023-04-05T03:22:59.750Z,1.27
2023-04-05T03:25:30.250Z,1.05
2023-04-05T03:28:00.433Z,0.85
2023-04-05T03:30:30.620Z,1.10
2023-04-05T03:33:03.074Z,0.82
2023-04-05T03:35:33.509Z,1.08
2023-04-05T03:38:03.735Z,0.90
2023-04-05T03:40:33.958Z,0.98
2023-04-05T03:43:04.153Z,0.82
2023-04-05T03:45:35.381Z,0.90
2023-04-05T03:48:05.996Z,0.88
2023-04-05T03:50:36.336Z,0.82
2023-04-05T03:53:06.621Z,1.02
2023-04-05T03:55:36.816Z,0.75
2023-04-05T03:58:07.351Z,1.13
2023-04-05T04:00:37.903Z,0.88
2023-04-05T04:03:08.988Z,0.88
2023-04-05T04:05:41.134Z,1.10
2023-04-05T04:08:11.912Z,0.82
2023-04-05T04:10:42.488Z,0.80
2023-04-05T04:13:12.731Z,0.80
2023-04-05T04:15:46.417Z,0.65
2023-04-05T04:18:16.701Z,1.13
2023-04-05T04:20:47.313Z,1.13
2023-04-05T04:23:18.548Z,1.00
2023-04-05T04:25:48.857Z,0.90
2023-04-05T04:28:21.123Z,1.02
2023-04-05T04:30:51.395Z,1.20
2023-04-05T04:33:21.723Z,0.93
2023-04-05T04:35:52.394Z,1.10
2023-04-05T04:38:30.947Z,1.10
2023-04-05T04:41:21.840Z,1.00
2023-04-05T04:44:16.330Z,0.90
2023-04-05T04:46:46.667Z,1.10
2023-04-05T04:49:18.924Z,0.85
2023-04-05T04:51:49.393Z,0.70
2023-04-05T04:54:22.616Z,0.75
2023-04-05T04:56:53.372Z,0.82
2023-04-05T04:59:23.663Z,1.00
2023-04-05T05:01:54.055Z,1.00
2023-04-05T05:04:25.246Z,1.05
2023-04-05T05:06:56.993Z,0.80
2023-04-05T05:09:28.761Z,1.50
2023-04-05T05:12:01.166Z,1.10
2023-04-05T05:14:31.494Z,1.30
2023-04-05T05:17:02.377Z,0.80
2023-04-05T05:19:33.562Z,0.68
2023-04-05T05:22:04.217Z,0.80
2023-04-05T05:24:34.485Z,0.88
2023-04-05T05:27:04.701Z,0.90
2023-04-05T05:29:34.960Z,0.70
2023-04-05T05:32:05.324Z,0.80
2023-04-05T05:34:35.538Z,0.70
2023-04-05T05:37:05.814Z,0.75
2023-04-05T05:39:36.016Z,0.70
2023-04-05T05:42:06.452Z,0.80
2023-04-05T05:44:37.621Z,0.85
2023-04-05T05:47:08.006Z,0.80
2023-04-05T05:49:38.254Z,0.80
2023-04-05T05:52:08.546Z,1.42
2023-04-05T05:54:38.767Z,0.85
2023-04-05T05:57:09.002Z,0.93
2023-04-05T05:59:39.243Z,0.95
2023-04-05T06:02:09.762Z,1.08
2023-04-05T06:04:40.182Z,0.90
2023-04-05T06:07:10.546Z,0.80
2023-04-05T06:09:41.033Z,0.80
2023-04-05T06:12:11.350Z,0.90
2023-04-05T06:14:41.558Z,0.80
2023-04-05T06:17:12.104Z,0.73
2023-04-05T06:19:42.535Z,0.85
2023-04-05T06:22:12.773Z,0.88
2023-04-05T06:24:42.992Z,0.80
2023-04-05T06:27:13.301Z,0.88
2023-04-05T06:30:05.813Z,0.98
2023-04-05T06:32:36.219Z,0.80
2023-04-05T06:35:06.934Z,0.70
2023-04-05T06:37:37.181Z,0.70
2023-04-05T06:40:08.141Z,1.08
2023-04-05T06:42:38.293Z,1.15
2023-04-05T06:45:09.072Z,1.15
2023-04-05T06:47:41.161Z,1.15
2023-04-05T06:50:12.386Z,1.42
2023-04-05T06:52:42.731Z,1.00
2023-04-05T06:55:13.055Z,1.30
2023-04-05T06:57:43.233Z,1.80
2023-04-05T07:00:15.072Z,1.40
2023-04-05T07:02:45.885Z,0.98
2023-04-05T07:05:16.158Z,1.48
2023-04-05T07:07:47.210Z,1.60
2023-04-05T07:10:18.119Z,1.40
2023-04-05T07:12:48.814Z,1.23
2023-04-05T07:15:19.113Z,1.58
2023-04-05T07:17:49.504Z,1.67
2023-04-05T07:20:19.829Z,1.80
2023-04-05T07:22:50.010Z,1.60
2023-04-05T07:25:20.470Z,1.60
2023-04-05T07:27:50.707Z,1.58
2023-04-05T07:30:20.951Z,1.60
2023-04-05T07:32:51.353Z,1.73
2023-04-05T07:35:21.667Z,1.88
2023-04-05T07:37:51.866Z,1.70
2023-04-05T07:40:22.370Z,1.85
2023-04-05T07:42:52.737Z,2.05
2023-04-05T07:45:23.123Z,1.70
2023-04-05T07:47:53.433Z,2.00
2023-04-05T07:50:23.716Z,1.60
2023-04-05T07:52:53.954Z,1.88
2023-04-05T07:55:24.235Z,1.33
2023-04-05T07:57:55.293Z,1.45
2023-04-05T08:00:25.780Z,1.77
2023-04-05T08:02:57.372Z,1.05
2023-04-05T08:05:31.327Z,1.40
2023-04-05T08:08:01.614Z,1.52
2023-04-05T08:10:31.979Z,1.33
2023-04-05T08:13:02.358Z,1.20
2023-04-05T08:15:32.696Z,1.25
2023-04-05T08:18:02.971Z,1.30
2023-04-05T08:20:33.326Z,1.15
2023-04-05T08:23:03.508Z,1.30
2023-04-05T08:25:33.759Z,1.08
2023-04-05T08:28:04.032Z,1.20
2023-04-05T08:30:34.282Z,1.50
2023-04-05T08:33:04.665Z,1.25
2023-04-05T08:35:38.687Z,1.10
2023-04-05T08:38:13.862Z,1.48
2023-04-05T08:40:49.351Z,1.40
2023-04-05T08:43:39.752Z,1.10
2023-04-05T08:46:16.318Z,1.30
2023-04-05T08:48:46.651Z,1.48
2023-04-05T08:51:20.481Z,1.50
2023-04-05T08:53:51.840Z,1.55
2023-04-05T08:56:29.831Z,1.65
2023-04-05T08:59:12.190Z,2.38
2023-04-05T09:01:47.988Z,2.47
2023-04-05T09:04:26.538Z,2.40
2023-04-05T09:06:59.882Z,4.53
2023-04-05T09:09:34.546Z,4.15
2023-04-05T09:12:27.432Z,4.28
2023-04-05T09:15:18.833Z,4.22
2023-04-05T09:17:49.529Z,4.20
2023-04-05T09:20:20.091Z,4.10
2023-04-05T09:22:51.031Z,4.70
2023-04-05T09:25:44.085Z,4.07
2023-04-05T09:28:14.581Z,4.70
2023-04-05T09:30:49.452Z,4.32
2023-04-05T09:33:22.849Z,4.63
2023-04-05T09:35:53.841Z,4.25
2023-04-05T09:38:47.612Z,4.20
2023-04-05T09:41:18.216Z,3.65
2023-04-05T09:43:48.723Z,4.13
2023-04-05T09:46:39.438Z,4.00
2023-04-05T09:49:11.829Z,3.67
2023-04-05T09:51:42.610Z,3.95
2023-04-05T09:54:13.791Z,3.92
2023-04-05T09:56:55.631Z,3.65
2023-04-05T09:59:25.988Z,3.78
2023-04-05T10:01:56.341Z,3.20
2023-04-05T10:04:28.729Z,3.15
2023-04-05T10:06:58.972Z,3.72
2023-04-05T10:09:29.331Z,3.50
2023-04-05T10:12:39.896Z,3.63
2023-04-05T10:15:30.449Z,2.80
2023-04-05T10:18:12.106Z,3.03
2023-04-05T10:20:51.925Z,3.30
2023-04-05T10:23:33.866Z,3.30
2023-04-05T10:26:37.424Z,2.97
2023-04-05T10:29:16.859Z,2.47
2023-04-05T10:32:12.756Z,2.53
2023-04-05T10:34:56.784Z,2.47
2023-04-05T10:38:00.659Z,2.22
2023-04-05T10:40:35.725Z,2.58
2023-04-05T10:43:09.558Z,2.72
2023-04-05T10:45:41.235Z,2.30
2023-04-05T10:48:23.155Z,1.85
2023-04-05T10:50:54.696Z,2.10
2023-04-05T10:53:25.708Z,2.15
2023-04-05T10:55:57.832Z,1.92
2023-04-05T10:58:29.393Z,1.63
2023-04-05T11:01:01.127Z,1.75
2023-04-05T11:03:54.614Z,1.70
2023-04-05T11:06:35.652Z,1.90
2023-04-05T11:09:22.179Z,1.70
2023-04-05T11:11:54.482Z,1.20
2023-04-05T11:14:28.981Z,1.45
2023-04-05T11:17:00.567Z,1.38
2023-04-05T11:19:51.400Z,1.23
2023-04-05T11:22:30.808Z,1.20
2023-04-05T11:25:04.625Z,1.20
2023-04-05T11:27:39.013Z,1.23
2023-04-05T11:30:10.165Z,1.10
2023-04-05T11:32:48.041Z,1.40
2023-04-05T11:35:24.721Z,1.20
2023-04-05T11:38:04.949Z,1.13
2023-04-05T11:40:39.935Z,1.20
2023-04-05T11:43:14.269Z,1.23
2023-04-05T11:45:45.221Z,1.00
2023-04-05T11:48:17.027Z,1.05
2023-04-05T11:50:48.892Z,0.90
2023-04-05T11:53:22.946Z,0.98
2023-04-05T11:55:54.396Z,1.40
2023-04-05T11:58:30.068Z,0.80
2023-04-05T12:01:06.846Z,0.80
2023-04-05T12:03:40.463Z,0.88
2023-04-05T12:06:11.149Z,0.80
2023-04-05T12:08:43.838Z,0.85
2023-04-05T12:11:15.144Z,0.85
2023-04-05T12:13:48.050Z,0.77
2023-04-05T12:16:19.561Z,0.60
2023-04-05T12:18:59.923Z,0.75
2023-04-05T12:21:31.181Z,0.68
2023-04-05T12:24:01.728Z,0.60
2023-04-05T12:26:36.168Z,0.90
2023-04-05T12:29:07.285Z,0.93
2023-04-05T12:31:48.674Z,0.50
2023-04-05T12:34:30.081Z,0.60
2023-04-05T12:37:05.179Z,0.70
2023-04-05T12:39:35.849Z,0.85
2023-04-05T12:42:06.306Z,0.70
2023-04-05T12:44:37.754Z,0.60
2023-04-05T12:47:12.797Z,0.52
2023-04-05T12:49:43.009Z,0.50
2023-04-05T12:52:13.441Z,0.80
2023-04-05T12:54:43.691Z,0.60
2023-04-05T12:57:16.077Z,0.60
2023-04-05T12:59:46.374Z,0.50
2023-04-05T13:02:16.899Z,0.70
2023-04-05T13:04:47.236Z,0.52
2023-04-05T13:07:17.658Z,0.80
2023-04-05T13:09:47.873Z,0.57
2023-04-05T13:12:18.235Z,0.50
2023-04-05T13:14:48.415Z,0.60
2023-04-05T13:17:18.881Z,0.70
2023-04-05T13:19:49.105Z,0.73
2023-04-05T13:22:19.394Z,0.52
2023-04-05T13:24:49.590Z,0.30
2023-04-05T13:27:19.936Z,0.50
2023-04-05T13:29:50.436Z,0.57
2023-04-05T13:32:20.805Z,0.70
2023-04-05T13:34:51.074Z,0.63
2023-04-05T13:37:21.644Z,0.50
2023-04-05T13:39:51.965Z,0.60
2023-04-05T13:42:40.914Z,0.40
2023-04-05T13:45:29.874Z,0.40
2023-04-05T13:48:00.411Z,0.50
2023-04-05T13:50:30.781Z,0.40
2023-04-05T13:53:01.049Z,0.50
2023-04-05T13:55:31.241Z,0.50
2023-04-05T13:58:01.457Z,0.40
2023-04-05T14:00:31.701Z,0.47
2023-04-05T14:03:02.176Z,0.75
2023-04-05T14:05:32.422Z,0.43
2023-04-05T14:08:02.668Z,0.45
2023-04-05T14:10:34.585Z,0.50
2023-04-05T14:13:04.860Z,0.60
2023-04-05T14:15:35.813Z,0.68
2023-04-05T14:18:06.148Z,0.40
2023-04-05T14:20:36.413Z,0.52
2023-04-05T14:23:07.068Z,0.40
2023-04-05T14:25:37.389Z,0.40
2023-04-05T14:28:08.132Z,0.60
2023-04-05T14:30:38.410Z,0.30
2023-04-05T14:33:09.130Z,0.50
2023-04-05T14:35:39.414Z,0.50
2023-04-05T14:38:10.216Z,0.52
2023-04-05T14:40:40.860Z,0.60
2023-04-05T14:43:11.748Z,0.50
2023-04-05T14:45:41.998Z,0.73
2023-04-05T14:48:12.371Z,0.60
2023-04-05T14:50:42.797Z,0.40
2023-04-05T14:53:13.329Z,0.38
2023-04-05T14:55:43.494Z,0.43
2023-04-05T14:58:14.466Z,0.40
2023-04-05T15:00:45.763Z,0.50
2023-04-05T15:03:16.197Z,0.30
2023-04-05T15:05:46.569Z,0.45
2023-04-05T15:08:17.838Z,0.47
2023-04-05T15:10:48.684Z,0.40
2023-04-05T15:13:21.385Z,0.50
2023-04-05T15:15:51.726Z,0.50
2023-04-05T15:18:22.177Z,0.40
2023-04-05T15:20:52.713Z,0.50
2023-04-05T15:23:23.216Z,0.40
2023-04-05T15:25:53.526Z,0.55
2023-04-05T15:28:23.781Z,0.35
2023-04-05T15:30:54.058Z,0.50
2023-04-05T15:33:24.346Z,0.30
2023-04-05T15:35:54.597Z,0.40
2023-04-05T15:38:42.841Z,0.40
2023-04-05T15:41:13.059Z,0.57
2023-04-05T15:43:43.396Z,0.50
2023-04-05T15:46:13.795Z,0.30
2023-04-05T15:48:45.463Z,0.40
2023-04-05T15:51:16.298Z,0.30
2023-04-05T15:53:46.723Z,0.40
2023-04-05T15:56:17.064Z,0.40
2023-04-05T15:58:47.942Z,0.40
2023-04-05T16:01:18.427Z,0.30
2023-04-05T16:03:48.959Z,0.43
2023-04-05T16:06:20.025Z,0.40
2023-04-05T16:08:50.332Z,0.45
2023-04-05T16:11:20.542Z,0.50
2023-04-05T16:13:51.064Z,0.40
2023-04-05T16:16:32.333Z,0.40
2023-04-05T16:19:05.635Z,0.43
2023-04-05T16:21:36.383Z,0.30
2023-04-05T16:24:07.251Z,0.32
2023-04-05T16:26:37.796Z,0.47
2023-04-05T16:29:08.174Z,0.40
2023-04-05T16:31:38.729Z,0.70
2023-04-05T16:34:09.773Z,0.47
2023-04-05T16:36:40.250Z,0.30
2023-04-05T16:39:10.788Z,0.40
2023-04-05T16:41:41.108Z,0.38
2023-04-05T16:44:12.040Z,0.68
2023-04-05T16:46:42.398Z,0.40
2023-04-05T16:49:12.878Z,0.50
2023-04-05T16:51:43.087Z,0.30
2023-04-05T16:54:13.494Z,0.30
2023-04-05T16:56:43.732Z,0.38
2023-04-05T16:59:14.061Z,0.32
2023-04-05T17:01:44.354Z,0.35
2023-04-05T17:04:14.722Z,0.30
2023-04-05T17:06:45.046Z,0.22
2023-04-05T17:09:15.455Z,0.40
2023-04-05T17:11:45.780Z,0.32
2023-04-05T17:14:16.025Z,0.40
2023-04-05T17:16:46.324Z,0.50
2023-04-05T17:19:17.635Z,0.52
2023-04-05T17:21:51.588Z,0.43
2023-04-05T17:24:21.891Z,0.35
2023-04-05T17:26:52.135Z,0.30
2023-04-05T17:29:22.369Z,0.40
2023-04-05T17:31:53.069Z,0.20
2023-04-05T17:34:23.326Z,0.32
2023-04-05T17:36:54.441Z,0.40
2023-04-05T17:39:24.677Z,0.35
2023-04-05T17:41:57.596Z,0.28
2023-04-05T17:44:27.858Z,0.30
2023-04-05T17:47:08.583Z,0.22
2023-04-05T17:49:39.987Z,0.40
2023-04-05T17:52:10.290Z,0.30
2023-04-05T17:54:41.794Z,0.50
2023-04-05T17:57:18.004Z,0.40
2023-04-05T17:59:48.281Z,0.40
2023-04-05T18:02:18.726Z,0.30
2023-04-05T18:04:49.136Z,0.25
2023-04-05T18:07:19.475Z,0.38
2023-04-05T18:09:50.670Z,0.30
2023-04-05T18:12:20.908Z,0.22
2023-04-05T18:14:51.164Z,0.30
2023-04-05T18:17:21.786Z,0.30
2023-04-05T18:19:52.417Z,0.30
2023-04-05T18:22:22.989Z,0.30
2023-04-05T18:24:53.569Z,0.30
2023-04-05T18:27:23.775Z,0.30
2023-04-05T18:29:54.081Z,0.50
2023-04-05T18:32:24.479Z,0.40
2023-04-05T18:34:54.809Z,0.30
2023-04-05T18:37:25.582Z,0.40
2023-04-05T18:39:55.910Z,0.47
2023-04-05T18:42:26.250Z,0.30
2023-04-05T18:44:56.489Z,0.30
2023-04-05T18:47:27.110Z,0.30
2023-04-05T18:49:58.052Z,0.30
2023-04-05T18:52:29.589Z,0.30
2023-04-05T18:55:00.232Z,0.22
2023-04-05T18:57:30.979Z,0.30
2023-04-05T19:00:01.220Z,0.38
2023-04-05T19:02:32.021Z,0.28
2023-04-05T19:05:02.343Z,0.35
2023-04-05T19:07:32.566Z,0.30
2023-04-05T19:10:03.110Z,0.40
2023-04-05T19:12:33.304Z,0.40
2023-04-05T19:15:03.511Z,0.40
2023-04-05T19:17:33.771Z,0.20
2023-04-05T19:20:04.094Z,0.45
2023-04-05T19:22:34.777Z,0.40
2023-04-05T19:25:05.882Z,0.38
2023-04-05T19:27:36.710Z,0.35
2023-04-05T19:30:07.931Z,0.40
2023-04-05T19:32:38.201Z,0.40
2023-04-05T19:35:13.470Z,0.40
2023-04-05T19:37:43.685Z,0.40
2023-04-05T19:40:14.324Z,0.30
2023-04-05T19:43:03.725Z,0.40
2023-04-05T19:45:42.141Z,0.32
2023-04-05T19:48:41.188Z,0.50
2023-04-05T19:51:16.101Z,0.30
2023-04-05T19:53:55.265Z,0.40
2023-04-05T19:56:27.980Z,0.50
2023-04-05T19:59:16.007Z,0.35
2023-04-05T20:01:49.185Z,0.50
2023-04-05T20:04:22.400Z,0.40
2023-04-05T20:06:57.437Z,0.32
2023-04-05T20:09:31.000Z,0.40
2023-04-05T20:12:05.845Z,0.30
2023-04-05T20:14:50.744Z,0.38
2023-04-05T20:17:21.226Z,0.30
2023-04-05T20:20:01.687Z,0.20
2023-04-05T20:22:34.367Z,0.30
2023-04-05T20:25:34.287Z,0.38
2023-04-05T20:28:05.647Z,0.30
2023-04-05T20:30:36.023Z,0.50
2023-04-05T20:33:09.066Z,0.30
2023-04-05T20:35:39.972Z,0.35
2023-04-05T20:38:10.544Z,0.50
2023-04-05T20:40:40.954Z,0.40
2023-04-05T20:43:11.154Z,0.35
2023-04-05T20:45:41.530Z,0.30
2023-04-05T20:48:12.761Z,0.22
2023-04-05T20:50:43.444Z,0.40
2023-04-05T20:53:13.693Z,0.30
2023-04-05T20:55:44.007Z,0.35
2023-04-05T20:58:14.210Z,0.40
2023-04-05T21:00:44.590Z,0.40
2023-04-05T21:03:15.175Z,0.40
2023-04-05T21:05:45.534Z,0.50
2023-04-05T21:08:15.960Z,0.40
2023-04-05T21:10:46.226Z,0.35
2023-04-05T21:13:35.289Z,0.30
2023-04-05T21:16:05.902Z,0.30
2023-04-05T21:18:36.584Z,0.30
2023-04-05T21:21:07.086Z,0.30
2023-04-05T21:23:37.346Z,0.40
2023-04-05T21:26:07.818Z,0.45
2023-04-05T21:28:38.079Z,0.38
2023-04-05T21:31:08.520Z,0.40
2023-04-05T21:33:38.779Z,0.30
2023-04-05T21:36:09.206Z,0.30
2023-04-05T21:38:39.449Z,0.30
2023-04-05T21:41:09.674Z,0.30
2023-04-05T21:43:40.020Z,0.38
2023-04-05T21:46:10.268Z,0.40
2023-04-05T21:48:40.466Z,0.40
2023-04-05T21:51:10.774Z,0.40
2023-04-05T21:53:40.967Z,0.30
2023-04-05T21:56:11.184Z,0.35
2023-04-05T21:58:43.175Z,0.40
2023-04-05T22:01:13.522Z,0.40
2023-04-05T22:03:43.814Z,0.40
2023-04-05T22:06:14.187Z,0.45
2023-04-05T22:08:44.375Z,0.40
2023-04-05T22:11:35.546Z,0.30
2023-04-05T22:14:24.381Z,0.43
2023-04-05T22:16:55.894Z,0.30
2023-04-05T22:19:26.469Z,0.40
2023-04-05T22:21:57.354Z,0.35
2023-04-05T22:24:28.038Z,0.30
2023-04-05T22:26:58.966Z,0.40
2023-04-05T22:29:29.386Z,0.38
2023-04-05T22:32:00.152Z,0.47
2023-04-05T22:34:30.609Z,0.30
2023-04-05T22:37:01.726Z,0.30
2023-04-05T22:39:32.039Z,0.40
2023-04-05T22:42:02.441Z,0.60
2023-04-05T22:44:33.024Z,0.75
2023-04-05T22:47:03.230Z,0.40
2023-04-05T22:49:33.541Z,0.40
2023-04-05T22:52:03.938Z,0.40
2023-04-05T22:54:34.188Z,0.50
2023-04-05T22:57:04.407Z,0.40
2023-04-05T22:59:42.284Z,0.60
2023-04-05T23:02:13.994Z,0.60
2023-04-05T23:04:44.304Z,0.65
2023-04-05T23:07:14.655Z,0.30
2023-04-05T23:09:44.919Z,0.50
2023-04-05T23:12:15.214Z,0.43
2023-04-05T23:14:45.734Z,0.63
2023-04-05T23:17:16.019Z,0.60
2023-04-05T23:19:46.445Z,0.50
2023-04-05T23:22:16.660Z,0.60
2023-04-05T23:24:46.988Z,0.70
2023-04-05T23:27:17.167Z,0.52
2023-04-05T23:29:47.386Z,0.60
2023-04-05T23:32:17.654Z,0.60
2023-04-05T23:34:47.982Z,0.60
2023-04-05T23:37:19.018Z,0.40
2023-04-05T23:39:49.534Z,0.60
2023-04-05T23:42:19.748Z,0.40
2023-04-05T23:44:49.999Z,0.55
2023-04-05T23:47:20.208Z,0.50
2023-04-05T23:49:50.456Z,0.90
2023-04-05T23:52:20.737Z,0.70
2023-04-05T23:54:50.970Z,0.50
2023-04-05T23:57:21.209Z,0.50
2023-04-05T23:59:52.153Z,0.60
